Time;durP1;ratioP1;P1;durP2;ratioP2;P2;SDS_P1;SDS_P2;PMS_P1;PMS_P2;Temp;Humidity;BMP_temperature;BMP_pressure;BME280_temperature;BME280_humidity;BME280_pressure;Samples;Min_cycle;Max_cycle;Signal;HPM_P1;HPM_P2
2021/08/20 00:01:04;;;;;;;2.60;2.40;;;16.40;99.90;;;;;;5049488;28;20205;-75
2021/08/20 00:03:29;;;;;;;2.07;1.97;;;16.70;99.90;;;;;;5047572;28;20555;-74
2021/08/20 00:05:54;;;;;;;2.40;2.10;;;16.20;99.90;;;;;;5036795;28;20186;-74
2021/08/20 00:08:20;;;;;;;3.47;1.90;;;16.40;99.90;;;;;;5056141;28;20183;-74
2021/08/20 00:10:47;;;;;;;2.40;2.20;;;16.40;99.90;;;;;;5052235;28;20273;-74
2021/08/20 00:13:13;;;;;;;2.20;2.10;;;16.80;99.90;;;;;;5047757;28;20183;-74
2021/08/20 00:15:38;;;;;;;2.33;2.03;;;16.70;99.90;;;;;;5045853;28;20444;-74
2021/08/20 00:18:04;;;;;;;2.63;2.43;;;16.60;99.90;;;;;;5047235;28;20644;-74
2021/08/20 00:20:29;;;;;;;2.47;2.27;;;16.80;99.90;;;;;;5037962;28;20206;-75
2021/08/20 00:22:55;;;;;;;2.40;2.00;;;16.70;99.90;;;;;;5034468;28;20217;-74
2021/08/20 00:25:20;;;;;;;2.40;2.20;;;16.30;99.90;;;;;;5045804;28;20190;-74
2021/08/20 00:27:48;;;;;;;1.93;1.83;;;16.30;99.90;;;;;;5050371;28;20568;-74
2021/08/20 00:30:13;;;;;;;2.80;2.00;;;16.60;99.90;;;;;;5041214;28;20203;-74
2021/08/20 00:32:39;;;;;;;2.43;2.20;;;16.60;99.90;;;;;;5046051;28;21311;-74
2021/08/20 00:35:05;;;;;;;2.10;1.90;;;16.50;99.90;;;;;;5052525;28;20193;-74
2021/08/20 00:37:33;;;;;;;1.80;1.70;;;16.30;99.90;;;;;;5050914;28;20188;-74
2021/08/20 00:39:58;;;;;;;2.03;1.93;;;16.50;99.90;;;;;;5047018;28;20458;-74
2021/08/20 00:42:25;;;;;;;2.10;2.00;;;16.40;99.90;;;;;;5035894;28;20442;-74
2021/08/20 00:44:51;;;;;;;2.23;1.80;;;16.60;99.90;;;;;;5042352;28;20434;-74
2021/08/20 00:47:17;;;;;;;1.87;1.77;;;16.60;99.90;;;;;;5044607;28;20804;-73
2021/08/20 00:49:43;;;;;;;1.87;1.77;;;16.70;99.90;;;;;;5047186;28;20421;-73
2021/08/20 00:52:09;;;;;;;2.50;2.30;;;16.30;99.90;;;;;;5047255;28;20833;-74
2021/08/20 00:54:35;;;;;;;3.40;2.60;;;16.60;99.90;;;;;;5041468;28;20440;-73
2021/08/20 00:57:03;;;;;;;2.07;1.97;;;16.50;99.90;;;;;;5039953;28;20520;-74
2021/08/20 00:59:28;;;;;;;2.87;2.00;;;16.50;99.90;;;;;;5041126;28;20254;-74
2021/08/20 01:01:54;;;;;;;2.40;1.83;;;16.70;99.90;;;;;;5042226;28;20476;-74
2021/08/20 01:04:20;;;;;;;2.07;1.97;;;16.60;99.90;;;;;;5040959;28;20603;-74
2021/08/20 01:06:45;;;;;;;2.30;2.10;;;16.70;99.90;;;;;;5046423;28;20181;-74
2021/08/20 01:09:11;;;;;;;2.30;2.10;;;16.40;99.90;;;;;;5041688;28;20563;-74
2021/08/20 01:11:37;;;;;;;3.40;2.80;;;16.60;99.90;;;;;;5038035;28;20191;-75
2021/08/20 01:14:04;;;;;;;2.50;2.30;;;16.70;99.90;;;;;;5039960;28;20186;-73
2021/08/20 01:16:31;;;;;;;2.83;2.63;;;16.20;99.90;;;;;;5043689;28;20852;-74
2021/08/20 01:18:56;;;;;;;2.83;2.50;;;16.70;99.90;;;;;;5036190;28;20441;-74
2021/08/20 01:21:23;;;;;;;3.30;2.93;;;16.20;99.90;;;;;;5038368;28;20470;-74
2021/08/20 01:23:52;;;;;;;2.80;2.60;;;16.70;99.90;;;;;;5037442;28;20192;-75
2021/08/20 01:26:17;;;;;;;2.67;2.47;;;16.60;99.90;;;;;;5046386;28;20465;-74
2021/08/20 01:28:43;;;;;;;2.80;2.50;;;16.60;99.90;;;;;;5048127;28;20869;-74
2021/08/20 01:31:11;;;;;;;2.80;2.53;;;16.80;99.90;;;;;;5034392;28;20186;-76
2021/08/20 01:33:38;;;;;;;3.60;2.57;;;16.70;99.90;;;;;;5037238;28;20469;-74
2021/08/20 01:36:04;;;;;;;2.50;2.30;;;16.60;99.90;;;;;;5045865;28;20438;-73
2021/08/20 01:38:31;;;;;;;2.33;2.13;;;16.50;99.90;;;;;;5046147;28;20865;-74
2021/08/20 01:40:56;;;;;;;4.23;2.30;;;16.60;99.90;;;;;;5038001;28;20230;-74
2021/08/20 01:43:22;;;;;;;2.60;2.00;;;16.70;99.90;;;;;;5051082;28;20475;-75
2021/08/20 01:45:49;;;;;;;2.77;2.57;;;16.70;99.90;;;;;;5049911;28;20183;-74
2021/08/20 01:48:15;;;;;;;2.20;2.00;;;16.70;99.90;;;;;;5048993;28;20202;-74
2021/08/20 01:50:42;;;;;;;2.67;2.47;;;16.80;99.90;;;;;;5044249;28;20432;-74
2021/08/20 01:53:12;;;;;;;3.63;2.87;;;16.70;99.90;;;;;;5045994;28;20551;-74
2021/08/20 01:55:38;;;;;;;2.67;2.47;;;16.60;99.90;;;;;;5044380;28;20946;-74
2021/08/20 01:58:04;;;;;;;2.20;2.03;;;16.70;99.90;;;;;;5049161;28;21001;-75
2021/08/20 02:00:30;;;;;;;2.47;2.27;;;16.70;99.90;;;;;;5050823;28;20472;-74
2021/08/20 02:02:56;;;;;;;2.80;2.17;;;16.50;99.90;;;;;;5050345;28;20429;-74
2021/08/20 02:05:21;;;;;;;3.10;2.43;;;16.60;99.90;;;;;;5048946;28;20588;-73
2021/08/20 02:07:47;;;;;;;2.50;2.30;;;16.50;99.90;;;;;;5043213;28;20183;-74
2021/08/20 02:10:13;;;;;;;2.33;2.13;;;16.70;99.90;;;;;;5046201;28;20212;-75
2021/08/20 02:12:38;;;;;;;2.67;2.47;;;16.60;99.90;;;;;;5044329;28;20183;-74
2021/08/20 02:15:05;;;;;;;2.63;2.43;;;16.20;99.90;;;;;;5045525;28;20431;-75
2021/08/20 02:17:31;;;;;;;2.80;2.47;;;16.60;99.90;;;;;;5051917;28;20191;-74
2021/08/20 02:19:56;;;;;;;2.40;2.20;;;16.50;99.90;;;;;;5042036;28;20512;-74
2021/08/20 02:22:22;;;;;;;2.57;2.30;;;16.70;99.90;;;;;;5044219;28;20210;-74
2021/08/20 02:24:49;;;;;;;2.33;2.13;;;16.70;99.90;;;;;;5052199;28;20739;-74
2021/08/20 02:27:14;;;;;;;4.17;2.67;;;16.60;99.90;;;;;;5046288;28;20222;-74
2021/08/20 02:29:40;;;;;;;2.40;2.20;;;16.60;99.90;;;;;;5047865;28;20440;-75
2021/08/20 02:32:05;;;;;;;2.70;2.13;;;16.70;99.90;;;;;;5047630;28;20186;-74
2021/08/20 02:34:31;;;;;;;3.53;2.37;;;16.60;99.90;;;;;;5043425;28;20206;-73
2021/08/20 02:36:57;;;;;;;3.40;3.20;;;16.60;99.90;;;;;;5045601;28;20668;-74
2021/08/20 02:39:22;;;;;;;2.50;2.30;;;16.60;99.90;;;;;;5043216;28;20457;-75
2021/08/20 02:41:48;;;;;;;2.43;2.23;;;16.70;99.90;;;;;;5048518;28;20209;-74
2021/08/20 02:44:15;;;;;;;2.50;2.17;;;16.60;99.90;;;;;;5045389;28;20170;-74
2021/08/20 02:46:41;;;;;;;2.90;2.70;;;16.50;99.90;;;;;;5044181;28;20186;-73
2021/08/20 02:49:06;;;;;;;2.17;2.00;;;16.40;99.90;;;;;;5050910;28;20857;-74
2021/08/20 02:51:32;;;;;;;2.17;1.90;;;16.60;99.90;;;;;;5055722;28;20477;-75
2021/08/20 02:53:58;;;;;;;2.77;2.27;;;16.60;99.90;;;;;;5049135;28;20212;-74
2021/08/20 02:56:24;;;;;;;2.50;2.10;;;16.60;99.90;;;;;;5045302;28;20183;-75
2021/08/20 02:58:49;;;;;;;2.33;2.13;;;16.30;99.90;;;;;;5053687;28;21008;-74
2021/08/20 03:01:15;;;;;;;2.77;2.03;;;16.60;99.90;;;;;;5043430;28;20680;-74
2021/08/20 03:03:41;;;;;;;2.43;2.23;;;16.60;99.90;;;;;;5045209;28;20184;-75
2021/08/20 03:06:06;;;;;;;2.13;2.03;;;16.70;99.90;;;;;;5048708;28;20179;-74
2021/08/20 03:08:32;;;;;;;2.37;1.93;;;16.60;99.90;;;;;;5046143;28;20190;-74
2021/08/20 03:10:57;;;;;;;2.20;2.00;;;16.70;99.90;;;;;;5042676;28;20225;-75
2021/08/20 03:13:23;;;;;;;2.57;2.40;;;16.60;99.90;;;;;;5047435;28;20190;-76
2021/08/20 03:15:48;;;;;;;2.60;2.40;;;16.70;99.90;;;;;;5049279;28;20224;-77
2021/08/20 03:18:14;;;;;;;2.10;2.00;;;16.60;99.90;;;;;;5051006;28;20199;-75
2021/08/20 03:20:40;;;;;;;2.33;2.13;;;16.40;99.90;;;;;;5060781;28;20612;-75
2021/08/20 03:23:05;;;;;;;2.10;1.90;;;16.70;99.90;;;;;;5049174;28;20447;-74
2021/08/20 03:25:31;;;;;;;1.67;1.57;;;16.60;99.90;;;;;;5050712;28;20183;-74
2021/08/20 03:27:56;;;;;;;2.73;1.93;;;16.60;99.90;;;;;;5051143;28;20604;-74
2021/08/20 03:30:22;;;;;;;2.20;2.00;;;16.50;99.90;;;;;;5048360;28;20190;-74
2021/08/20 03:32:47;;;;;;;2.53;2.13;;;16.60;99.90;;;;;;5049027;28;20202;-74
2021/08/20 03:35:14;;;;;;;1.90;1.80;;;16.20;99.90;;;;;;5048455;28;20190;-74
2021/08/20 03:37:40;;;;;;;1.97;1.87;;;16.40;99.90;;;;;;5051594;28;20191;-76
2021/08/20 03:40:07;;;;;;;4.00;2.00;;;16.70;99.90;;;;;;5046740;28;22095;-74
2021/08/20 03:42:33;;;;;;;5.70;2.27;;;16.40;99.90;;;;;;5046954;28;20670;-74
2021/08/20 03:44:58;;;;;;;1.80;1.70;;;16.40;99.90;;;;;;5053363;28;20428;-74
2021/08/20 03:47:24;;;;;;;2.33;2.13;;;16.60;99.90;;;;;;5055490;28;20184;-74
2021/08/20 03:49:49;;;;;;;2.13;2.03;;;16.70;99.90;;;;;;5048871;28;20181;-74
2021/08/20 03:52:15;;;;;;;2.70;2.20;;;16.70;99.90;;;;;;5050051;28;20182;-74
2021/08/20 03:54:40;;;;;;;2.40;2.20;;;16.60;99.90;;;;;;5052257;28;20177;-75
2021/08/20 03:57:06;;;;;;;2.53;2.13;;;16.30;99.90;;;;;;5049895;28;20187;-74
2021/08/20 03:59:33;;;;;;;2.33;2.13;;;16.50;99.90;;;;;;5046604;28;20621;-74
2021/08/20 04:02:01;;;;;;;2.50;2.17;;;16.60;99.90;;;;;;5048410;28;20249;-74
2021/08/20 04:04:27;;;;;;;2.10;2.00;;;16.60;99.90;;;;;;5046477;28;20516;-74
2021/08/20 04:06:52;;;;;;;2.67;2.47;;;16.60;99.90;;;;;;5046742;28;20512;-74
2021/08/20 04:09:18;;;;;;;2.50;2.30;;;16.40;99.90;;;;;;5045257;28;20661;-73
2021/08/20 04:11:43;;;;;;;2.80;2.13;;;16.50;99.90;;;;;;5055465;28;20183;-74
2021/08/20 04:14:09;;;;;;;2.20;2.00;;;16.20;99.90;;;;;;5050078;28;20186;-74
2021/08/20 04:16:36;;;;;;;2.30;2.10;;;16.40;99.90;;;;;;5052542;28;20277;-73
2021/08/20 04:19:02;;;;;;;1.93;1.83;;;16.40;99.90;;;;;;5050125;28;20541;-74
2021/08/20 04:21:28;;;;;;;2.40;2.20;;;16.70;99.90;;;;;;5055386;28;20517;-74
2021/08/20 04:23:53;;;;;;;2.03;1.93;;;16.40;99.90;;;;;;5050097;28;20498;-74
2021/08/20 04:26:19;;;;;;;2.20;2.00;;;16.40;99.90;;;;;;5044643;28;20210;-73
2021/08/20 04:28:44;;;;;;;2.50;2.17;;;16.10;99.90;;;;;;5052457;28;20714;-74
2021/08/20 04:31:10;;;;;;;2.70;2.30;;;16.60;99.90;;;;;;5054548;28;20185;-74
2021/08/20 04:33:36;;;;;;;2.53;2.23;;;16.50;99.90;;;;;;5046222;28;20218;-74
2021/08/20 04:36:02;;;;;;;2.20;2.07;;;16.40;99.90;;;;;;5046301;28;20530;-74
2021/08/20 04:38:28;;;;;;;1.93;1.83;;;16.50;99.90;;;;;;5045673;28;20425;-74
2021/08/20 04:40:53;;;;;;;2.03;1.93;;;16.10;99.90;;;;;;5048918;28;20293;-74
2021/08/20 04:43:19;;;;;;;2.43;1.83;;;16.50;99.90;;;;;;5056315;28;20175;-74
2021/08/20 04:45:45;;;;;;;2.53;2.33;;;16.30;99.90;;;;;;5048743;28;20253;-74
2021/08/20 04:48:11;;;;;;;2.33;2.17;;;16.10;99.90;;;;;;5049598;28;20289;-73
2021/08/20 04:50:36;;;;;;;2.70;2.50;;;16.50;99.90;;;;;;5045437;28;20990;-74
2021/08/20 04:53:03;;;;;;;2.40;2.20;;;16.30;99.90;;;;;;5053951;28;20706;-74
2021/08/20 04:55:28;;;;;;;2.70;2.50;;;16.10;99.90;;;;;;5045292;28;20216;-73
2021/08/20 04:57:54;;;;;;;2.47;2.27;;;16.20;99.90;;;;;;5044022;28;20935;-72
2021/08/20 05:00:19;;;;;;;2.67;2.47;;;16.50;99.90;;;;;;5043793;28;20209;-74
2021/08/20 05:02:45;;;;;;;2.47;2.23;;;16.40;99.90;;;;;;5047231;28;20190;-74
2021/08/20 05:05:11;;;;;;;2.50;2.30;;;16.50;99.90;;;;;;5047469;28;20186;-74
2021/08/20 05:07:37;;;;;;;2.50;2.30;;;16.50;99.90;;;;;;5047168;28;20201;-74
2021/08/20 05:10:09;;;;;;;3.50;2.10;;;16.70;99.90;;;;;;5051150;28;20425;-74
2021/08/20 05:12:39;;;;;;;2.20;2.10;;;16.90;99.90;;;;;;5048543;28;20764;-74
2021/08/20 05:15:06;;;;;;;2.57;2.37;;;16.60;99.90;;;;;;5047331;28;20436;-75
2021/08/20 05:17:32;;;;;;;2.57;2.37;;;16.80;99.90;;;;;;5044943;28;20506;-74
2021/08/20 05:19:57;;;;;;;2.43;2.23;;;16.60;99.90;;;;;;5046976;28;20473;-73
2021/08/20 05:22:23;;;;;;;2.60;2.40;;;16.90;99.90;;;;;;5046811;28;20579;-74
2021/08/20 05:24:49;;;;;;;2.20;2.10;;;16.70;99.90;;;;;;5047160;28;20187;-74
2021/08/20 05:27:14;;;;;;;2.57;2.20;;;16.70;99.90;;;;;;5046763;28;20696;-74
2021/08/20 05:29:40;;;;;;;2.70;2.30;;;17.20;99.90;;;;;;5043455;28;20225;-74
2021/08/20 05:32:06;;;;;;;4.23;2.67;;;17.00;99.90;;;;;;5043139;28;20191;-74
2021/08/20 05:34:32;;;;;;;2.40;2.23;;;17.20;99.90;;;;;;5047060;28;20676;-75
2021/08/20 05:36:57;;;;;;;2.50;2.30;;;17.40;99.90;;;;;;5053514;28;20433;-75
2021/08/20 05:39:23;;;;;;;2.70;2.50;;;17.20;99.90;;;;;;5046651;28;20187;-75
2021/08/20 05:41:48;;;;;;;2.50;2.30;;;17.30;99.90;;;;;;5046666;28;20248;-75
2021/08/20 05:44:13;;;;;;;2.47;2.27;;;17.20;99.90;;;;;;5046844;28;20245;-75
2021/08/20 05:46:39;;;;;;;3.73;2.50;;;17.40;99.90;;;;;;5044789;28;20198;-75
2021/08/20 05:49:05;;;;;;;2.20;2.10;;;17.40;99.90;;;;;;5046941;28;20176;-75
2021/08/20 05:51:32;;;;;;;2.33;2.13;;;17.70;99.90;;;;;;5044439;28;20251;-75
2021/08/20 05:53:58;;;;;;;2.37;2.17;;;17.90;99.90;;;;;;5044654;28;20425;-75
2021/08/20 05:56:23;;;;;;;2.40;2.20;;;18.10;99.90;;;;;;5048370;28;20465;-75
2021/08/20 05:58:51;;;;;;;4.50;3.10;;;18.00;99.90;;;;;;5046686;28;20489;-74
2021/08/20 06:01:17;;;;;;;3.27;2.63;;;18.10;99.90;;;;;;5058182;28;20210;-75
2021/08/20 06:03:43;;;;;;;3.13;2.73;;;18.10;99.90;;;;;;5048418;28;20798;-75
2021/08/20 06:06:14;;;;;;;4.40;2.60;;;18.50;99.90;;;;;;5044841;28;20204;-74
2021/08/20 06:08:40;;;;;;;3.47;3.17;;;18.60;99.90;;;;;;5046238;28;20753;-80
2021/08/20 06:11:06;;;;;;;1.97;1.87;;;18.70;99.90;;;;;;5046418;28;20440;-75
2021/08/20 06:13:31;;;;;;;2.00;1.90;;;18.50;99.90;;;;;;5043785;28;20483;-74
2021/08/20 06:15:57;;;;;;;2.40;2.20;;;18.70;99.90;;;;;;5042545;28;20180;-74
2021/08/20 06:18:22;;;;;;;1.90;1.80;;;19.00;99.90;;;;;;5044291;28;20207;-75
2021/08/20 06:20:48;;;;;;;2.97;2.77;;;19.10;99.90;;;;;;5045443;28;20217;-74
2021/08/20 06:23:13;;;;;;;2.67;2.47;;;19.50;99.90;;;;;;5043527;28;20213;-75
2021/08/20 06:25:39;;;;;;;2.90;2.70;;;19.20;99.90;;;;;;5040440;28;20223;-74
2021/08/20 06:28:05;;;;;;;2.53;2.27;;;19.50;99.90;;;;;;5047002;28;20324;-74
2021/08/20 06:30:30;;;;;;;2.07;1.97;;;19.50;99.90;;;;;;5047785;28;20205;-74
2021/08/20 06:32:55;;;;;;;2.13;2.03;;;19.60;99.90;;;;;;5050109;28;20205;-74
2021/08/20 06:35:21;;;;;;;1.80;1.70;;;20.00;99.90;;;;;;5045600;28;20545;-74
2021/08/20 06:37:46;;;;;;;2.83;2.50;;;20.40;99.90;;;;;;5046284;28;20194;-74
2021/08/20 06:40:12;;;;;;;2.00;1.90;;;20.40;99.90;;;;;;5047421;28;20209;-75
2021/08/20 06:42:38;;;;;;;2.77;2.57;;;20.90;99.90;;;;;;5045819;28;20181;-75
2021/08/20 06:45:04;;;;;;;2.10;2.00;;;20.90;99.90;;;;;;5045482;28;20986;-74
2021/08/20 06:47:29;;;;;;;3.43;3.13;;;20.80;99.90;;;;;;5043449;28;20185;-75
2021/08/20 06:49:55;;;;;;;2.80;2.60;;;20.80;99.90;;;;;;5045621;28;20437;-75
2021/08/20 06:52:20;;;;;;;2.97;2.77;;;21.00;99.90;;;;;;5044942;28;20582;-74
2021/08/20 06:54:46;;;;;;;5.30;3.03;;;21.20;99.90;;;;;;5054230;28;20305;-76
2021/08/20 06:57:13;;;;;;;2.30;2.20;;;21.60;99.90;;;;;;5046293;28;20548;-75
2021/08/20 06:59:38;;;;;;;2.70;2.50;;;21.50;99.90;;;;;;5048854;28;20191;-75
2021/08/20 07:02:04;;;;;;;2.70;2.50;;;21.60;99.90;;;;;;5044927;28;20610;-75
2021/08/20 07:04:30;;;;;;;2.87;2.57;;;21.50;99.90;;;;;;5043293;28;20609;-75
2021/08/20 07:06:55;;;;;;;3.10;2.90;;;21.60;99.90;;;;;;5042803;28;20186;-74
2021/08/20 07:09:22;;;;;;;2.87;2.67;;;21.70;98.90;;;;;;5042363;28;20185;-77
2021/08/20 07:11:48;;;;;;;3.00;2.80;;;21.80;98.30;;;;;;5037334;28;20182;-75
2021/08/20 07:14:13;;;;;;;3.50;2.93;;;21.90;96.90;;;;;;5044692;28;20432;-75
2021/08/20 07:16:39;;;;;;;3.10;2.80;;;22.10;97.00;;;;;;5043567;28;21103;-75
2021/08/20 07:19:04;;;;;;;3.20;2.90;;;21.70;96.30;;;;;;5047569;28;20194;-76
2021/08/20 07:21:30;;;;;;;4.47;3.47;;;21.90;96.30;;;;;;5051412;28;20307;-76
2021/08/20 07:23:55;;;;;;;4.37;3.63;;;22.00;96.30;;;;;;5042652;28;20178;-81
2021/08/20 07:26:21;;;;;;;5.70;4.90;;;22.20;95.80;;;;;;5044813;28;20175;-75
2021/08/20 07:28:46;;;;;;;5.47;4.97;;;21.90;94.00;;;;;;5044631;28;20231;-76
2021/08/20 07:31:12;;;;;;;4.50;4.10;;;21.70;93.50;;;;;;5044272;28;20286;-75
2021/08/20 07:33:37;;;;;;;5.07;4.57;;;21.80;94.00;;;;;;5042540;28;20242;-75
2021/08/20 07:36:04;;;;;;;5.60;5.20;;;22.00;93.80;;;;;;5048159;28;20599;-75
2021/08/20 07:38:29;;;;;;;5.77;4.40;;;22.10;93.90;;;;;;5052414;28;20182;-75
2021/08/20 07:40:55;;;;;;;6.57;5.90;;;21.90;93.10;;;;;;5041415;28;20518;-75
2021/08/20 07:43:21;;;;;;;4.70;4.40;;;21.70;92.50;;;;;;5041180;28;20640;-75
2021/08/20 07:45:46;;;;;;;5.57;5.10;;;21.80;92.00;;;;;;5051358;28;20176;-76
2021/08/20 07:48:12;;;;;;;8.13;4.57;;;21.80;91.90;;;;;;5048647;28;20668;-75
2021/08/20 07:50:40;;;;;;;5.07;4.67;;;21.90;91.90;;;;;;5048120;28;20194;-75
2021/08/20 07:53:06;;;;;;;5.37;4.97;;;22.20;91.30;;;;;;5044809;28;20466;-75
2021/08/20 07:55:33;;;;;;;5.17;4.70;;;21.90;91.30;;;;;;5042325;28;20457;-76
2021/08/20 07:57:59;;;;;;;4.57;4.17;;;22.20;89.30;;;;;;5049535;28;20935;-75
2021/08/20 08:00:29;;;;;;;4.70;4.30;;;22.20;88.20;;;;;;5046653;28;20519;-81
2021/08/20 08:02:56;;;;;;;5.47;4.60;;;22.50;89.10;;;;;;5050840;28;20438;-76
2021/08/20 08:05:22;;;;;;;4.90;4.50;;;22.60;88.90;;;;;;5052950;28;20522;-79
2021/08/20 08:07:48;;;;;;;4.17;3.80;;;23.00;86.10;;;;;;5052515;28;20435;-76
2021/08/20 08:10:14;;;;;;;3.37;3.07;;;23.50;83.10;;;;;;5046287;28;20438;-76
2021/08/20 08:12:40;;;;;;;3.57;3.27;;;23.50;79.20;;;;;;5047643;28;20794;-76
2021/08/20 08:15:07;;;;;;;3.93;3.63;;;24.30;76.30;;;;;;5040829;28;20447;-76
2021/08/20 08:17:34;;;;;;;3.80;3.50;;;24.20;73.30;;;;;;5054156;28;20183;-76
2021/08/20 08:20:00;;;;;;;6.00;5.57;;;24.30;71.10;;;;;;5051993;28;20432;-75
2021/08/20 08:22:25;;;;;;;4.60;4.20;;;24.00;71.50;;;;;;5046072;28;20431;-75
2021/08/20 08:24:51;;;;;;;5.10;4.70;;;23.50;71.20;;;;;;5047684;28;20641;-76
2021/08/20 08:27:16;;;;;;;5.00;4.50;;;23.30;71.80;;;;;;5050830;28;20369;-76
2021/08/20 08:29:42;;;;;;;4.63;4.17;;;23.40;73.80;;;;;;5045059;28;20180;-76
2021/08/20 08:32:07;;;;;;;4.30;3.70;;;22.80;74.10;;;;;;5043719;28;20179;-77
2021/08/20 08:34:33;;;;;;;5.23;4.73;;;22.70;75.00;;;;;;5042834;28;20239;-77
2021/08/20 08:36:58;;;;;;;4.50;4.20;;;22.50;75.30;;;;;;5046342;28;20192;-77
2021/08/20 08:39:24;;;;;;;5.33;4.73;;;22.60;76.20;;;;;;5045232;28;20654;-76
2021/08/20 08:41:50;;;;;;;4.27;3.97;;;22.90;77.60;;;;;;5051565;28;20557;-76
2021/08/20 08:44:15;;;;;;;5.00;4.60;;;23.00;77.90;;;;;;5048939;28;20188;-76
2021/08/20 08:46:41;;;;;;;4.63;4.23;;;23.50;77.20;;;;;;5048407;28;20185;-77
2021/08/20 08:49:11;;;;;;;5.37;4.60;;;24.00;76.30;;;;;;5057221;28;20193;-77
2021/08/20 08:51:36;;;;;;;4.40;4.00;;;25.00;74.70;;;;;;5051722;28;20521;-77
2021/08/20 08:54:02;;;;;;;4.40;4.10;;;26.30;66.00;;;;;;5046298;28;20528;-77
2021/08/20 08:56:27;;;;;;;4.07;3.67;;;27.00;59.30;;;;;;5043830;28;20188;-76
2021/08/20 08:58:53;;;;;;;3.77;3.47;;;27.40;58.30;;;;;;5049634;28;20190;-77
2021/08/20 09:01:26;;;;;;;3.60;3.40;;;27.60;56.10;;;;;;5046988;28;20570;-76
2021/08/20 09:04:15;;;;;;;3.73;3.43;;;27.50;54.60;;;;;;5045007;28;20285;-77
2021/08/20 09:06:47;;;;;;;4.43;3.90;;;27.80;53.40;;;;;;5044611;28;20412;-77
2021/08/20 09:09:15;;;;;;;4.17;3.87;;;28.10;52.90;;;;;;5045420;28;20789;-76
2021/08/20 09:11:42;;;;;;;4.33;4.03;;;28.40;52.80;;;;;;5048600;28;20893;-77
2021/08/20 09:14:09;;;;;;;4.07;3.73;;;28.90;52.40;;;;;;5046489;28;20480;-78
2021/08/20 09:16:36;;;;;;;3.93;3.63;;;30.20;51.10;;;;;;5051247;28;20432;-79
2021/08/20 09:19:28;;;;;;;4.70;4.30;;;31.90;46.30;;;;;;5046964;28;20431;-77
2021/08/20 09:21:56;;;;;;;4.23;3.93;;;33.70;42.80;;;;;;5047682;28;20828;-77
2021/08/20 09:24:36;;;;;;;3.60;3.33;;;34.50;38.60;;;;;;5045108;28;20433;-78
2021/08/20 09:27:14;;;;;;;3.53;3.33;;;34.60;37.50;;;;;;5044723;28;20475;-77
2021/08/20 09:30:14;;;;;;;3.93;3.63;;;34.10;37.70;;;;;;5044592;28;20823;-77
2021/08/20 09:32:45;;;;;;;4.37;4.07;;;33.20;38.30;;;;;;5038411;28;20970;-76
2021/08/20 09:35:11;;;;;;;4.10;3.80;;;32.40;38.90;;;;;;5054351;28;20421;-76
2021/08/20 09:37:37;;;;;;;4.30;4.00;;;32.00;40.60;;;;;;5055089;28;20474;-77
2021/08/20 09:40:08;;;;;;;4.10;3.90;;;31.40;40.00;;;;;;5047348;28;20430;-76
2021/08/20 09:42:34;;;;;;;4.50;4.20;;;31.10;40.90;;;;;;5045712;28;20792;-77
2021/08/20 09:45:16;;;;;;;4.90;4.60;;;31.30;41.70;;;;;;5052445;28;20786;-77
2021/08/20 09:47:48;;;;;;;4.90;4.40;;;31.70;41.90;;;;;;5043138;28;20464;-77
2021/08/20 09:50:14;;;;;;;5.00;4.60;;;32.20;41.60;;;;;;5043078;28;20452;-77
2021/08/20 09:52:40;;;;;;;4.33;4.03;;;32.70;39.60;;;;;;5040729;28;20801;-77
2021/08/20 09:55:06;;;;;;;5.50;4.60;;;33.60;37.60;;;;;;5051656;28;20438;-76
2021/08/20 09:57:35;;;;;;;4.20;3.90;;;34.90;36.20;;;;;;5041632;28;20649;-77
2021/08/20 10:00:01;;;;;;;4.77;4.47;;;36.00;34.50;;;;;;5045771;28;20442;-77
2021/08/20 10:02:28;;;;;;;4.17;3.87;;;36.00;33.40;;;;;;5044146;28;20438;-76
2021/08/20 10:04:55;;;;;;;4.70;4.40;;;35.50;33.50;;;;;;5047548;28;20427;-77
2021/08/20 10:07:22;;;;;;;4.20;3.90;;;34.80;33.50;;;;;;5044522;28;20456;-77
2021/08/20 10:09:48;;;;;;;3.67;3.40;;;34.30;35.00;;;;;;5045077;28;20429;-76
2021/08/20 10:12:24;;;;;;;4.80;4.30;;;33.80;36.10;;;;;;5045204;28;20433;-76
2021/08/20 10:14:51;;;;;;;4.33;4.03;;;33.40;36.80;;;;;;5045398;28;20448;-75
2021/08/20 10:17:17;;;;;;;4.23;3.83;;;33.10;37.00;;;;;;5041869;28;20425;-77
2021/08/20 10:19:43;;;;;;;3.60;3.30;;;33.70;37.90;;;;;;5048009;28;20965;-76
2021/08/20 10:22:10;;;;;;;3.70;3.50;;;33.80;36.20;;;;;;5044747;28;20221;-76
2021/08/20 10:24:36;;;;;;;3.57;3.37;;;33.30;36.30;;;;;;5043467;28;20678;-76
2021/08/20 10:27:05;;;;;;;4.60;4.30;;;32.60;37.00;;;;;;5043243;28;21087;-75
2021/08/20 10:29:33;;;;;;;5.10;4.73;;;31.90;38.50;;;;;;5050445;28;20982;-75
2021/08/20 10:32:04;;;;;;;4.93;4.63;;;31.20;40.10;;;;;;5050417;28;20435;-75
2021/08/20 10:34:30;;;;;;;5.10;4.80;;;31.00;42.70;;;;;;5045225;28;20481;-75
2021/08/20 10:37:10;;;;;;;4.93;4.63;;;32.50;43.10;;;;;;5047179;28;20465;-76
2021/08/20 10:39:38;;;;;;;5.43;4.83;;;34.70;38.50;;;;;;5035526;28;20216;-76
2021/08/20 10:42:06;;;;;;;4.40;4.10;;;36.20;35.40;;;;;;5047113;28;21007;-77
2021/08/20 10:44:37;;;;;;;4.97;4.57;;;37.50;32.40;;;;;;5041524;28;20432;-74
2021/08/20 10:47:03;;;;;;;5.90;4.00;;;38.60;30.50;;;;;;5034179;28;20521;-76
2021/08/20 10:49:39;;;;;;;4.30;3.90;;;40.20;27.90;;;;;;5037661;28;21081;-77
2021/08/20 10:52:05;;;;;;;4.10;3.80;;;41.70;26.70;;;;;;5049621;28;20436;-76
2021/08/20 10:54:30;;;;;;;4.40;4.00;;;42.20;24.50;;;;;;5049801;28;20433;-75
2021/08/20 10:57:06;;;;;;;4.10;3.80;;;41.60;24.80;;;;;;5047574;28;20279;-75
2021/08/20 10:59:44;;;;;;;3.80;3.60;;;41.90;25.50;;;;;;5047097;28;20186;-77
2021/08/20 11:02:18;;;;;;;4.57;4.17;;;43.00;26.00;;;;;;5040621;28;20468;-75
2021/08/20 11:05:03;;;;;;;4.53;4.23;;;44.10;24.70;;;;;;5055471;28;20447;-75
2021/08/20 11:07:44;;;;;;;4.20;4.00;;;44.50;22.70;;;;;;5043851;28;20523;-76
2021/08/20 11:10:09;;;;;;;4.47;4.13;;;43.60;23.10;;;;;;5038289;28;20425;-75
2021/08/20 11:12:56;;;;;;;4.77;4.47;;;42.20;24.00;;;;;;5047077;28;20435;-76
2021/08/20 11:15:22;;;;;;;4.27;3.97;;;41.10;25.90;;;;;;5035659;28;20200;-78
2021/08/20 11:17:50;;;;;;;4.57;4.27;;;41.40;25.20;;;;;;5045498;28;20517;-77
2021/08/20 11:20:38;;;;;;;3.70;3.50;;;42.30;25.60;;;;;;5037944;28;20221;-76
2021/08/20 11:23:10;;;;;;;4.47;4.17;;;43.30;23.70;;;;;;5047059;28;20832;-77
2021/08/20 11:25:50;;;;;;;4.43;4.03;;;44.30;22.80;;;;;;5045217;28;20516;-78
2021/08/20 11:28:29;;;;;;;4.13;3.93;;;44.90;22.30;;;;;;5052637;28;20529;-78
2021/08/20 11:31:03;;;;;;;3.73;3.53;;;45.30;20.80;;;;;;5044858;28;20996;-78
2021/08/20 11:33:43;;;;;;;3.37;3.10;;;45.30;20.60;;;;;;5040993;28;21107;-77
2021/08/20 11:36:17;;;;;;;3.60;3.40;;;45.90;21.50;;;;;;5049516;28;20765;-76
2021/08/20 11:38:43;;;;;;;3.70;3.50;;;46.20;20.30;;;;;;5049129;28;20506;-79
2021/08/20 11:41:22;;;;;;;3.67;3.40;;;45.60;21.20;;;;;;5046907;28;20845;-78
2021/08/20 11:43:57;;;;;;;4.30;4.00;;;45.50;20.10;;;;;;5047078;28;20437;-76
2021/08/20 11:46:25;;;;;;;4.10;3.80;;;44.40;20.60;;;;;;5053591;28;20949;-76
2021/08/20 11:48:54;;;;;;;4.07;3.80;;;43.50;20.80;;;;;;5049574;28;20428;-76
2021/08/20 11:51:31;;;;;;;4.40;4.00;;;41.90;22.00;;;;;;5046563;28;20467;-76
2021/08/20 11:53:59;;;;;;;4.40;4.10;;;40.10;23.80;;;;;;5050923;28;20586;-76
2021/08/20 11:56:25;;;;;;;3.90;3.67;;;38.60;25.30;;;;;;5055230;28;20436;-75
2021/08/20 11:58:52;;;;;;;4.47;4.17;;;37.40;27.00;;;;;;5045390;28;20445;-76
2021/08/20 12:01:28;;;;;;;5.10;4.80;;;36.40;28.00;;;;;;5052398;28;20470;-76
2021/08/20 12:03:56;;;;;;;4.03;3.50;;;36.00;30.50;;;;;;5048199;28;20431;-81
2021/08/20 12:06:22;;;;;;;5.30;4.87;;;36.30;30.00;;;;;;5048376;28;20435;-80
2021/08/20 12:08:48;;;;;;;4.50;4.20;;;36.70;29.50;;;;;;5046411;28;20520;-78
2021/08/20 12:11:20;;;;;;;4.47;4.17;;;36.70;28.70;;;;;;5046665;28;20757;-87
2021/08/20 12:13:50;;;;;;;4.87;4.57;;;36.00;29.70;;;;;;5049262;28;20517;-78
2021/08/20 12:16:41;;;;;;;5.00;4.70;;;35.30;30.80;;;;;;5040253;28;20434;-80
2021/08/20 12:19:10;;;;;;;5.73;4.47;;;35.50;31.70;;;;;;5047384;28;20465;-80
2021/08/20 12:21:36;;;;;;;4.90;4.50;;;36.90;29.90;;;;;;5047211;28;20439;-81
2021/08/20 12:24:03;;;;;;;4.57;4.27;;;37.60;29.00;;;;;;5049028;28;20599;-79
2021/08/20 12:26:29;;;;;;;4.17;3.77;;;38.30;29.30;;;;;;5045613;28;20183;-80
2021/08/20 12:28:56;;;;;;;4.50;4.20;;;39.60;27.70;;;;;;5044903;28;20469;-78
2021/08/20 12:31:23;;;;;;;4.20;3.90;;;41.10;27.00;;;;;;5046584;28;20461;-78
2021/08/20 12:34:03;;;;;;;4.07;3.80;;;42.50;24.60;;;;;;5043970;28;20731;-79
2021/08/20 12:36:29;;;;;;;3.90;3.70;;;43.70;23.40;;;;;;5041567;28;20766;-77
2021/08/20 12:39:14;;;;;;;3.63;3.43;;;44.60;21.40;;;;;;5048157;28;20452;-76
2021/08/20 12:41:41;;;;;;;4.40;4.10;;;45.00;20.70;;;;;;5043203;28;20437;-78
2021/08/20 12:44:09;;;;;;;3.50;3.30;;;45.40;19.90;;;;;;5053272;28;20934;-79
2021/08/20 12:46:39;;;;;;;3.40;3.20;;;45.90;20.00;;;;;;5045253;28;20433;-78
2021/08/20 12:49:06;;;;;;;3.70;3.50;;;46.70;19.90;;;;;;5041631;28;20947;-78